Time;durP1;ratioP1;P1;durP2;ratioP2;P2;SDS_P1;SDS_P2;PMS_P1;PMS_P2;Temp;Humidity;BMP_temperature;BMP_pressure;BME280_temperature;BME280_humidity;BME280_pressure;Samples;Min_cycle;Max_cycle;Signal;HPM_P1;HPM_P2
2022/06/03 00:01:42;;;;;;;7.55;5.05;;;;;;;;;;5031709;28;20393;-79
2022/06/03 00:04:38;;;;;;;7.68;4.45;;;;;;;;;;5031790;28;20022;-72
2022/06/03 00:07:23;;;;;;;8.52;4.50;;;;;;;;;;5031750;28;20144;-67
2022/06/03 00:09:57;;;;;;;6.63;4.50;;;;;;;;;;5031340;28;20069;-66
2022/06/03 00:12:58;;;;;;;12.52;4.95;;;;;;;;;;5031441;28;20468;-67
2022/06/03 00:15:30;;;;;;;8.50;4.80;;;;;;;;;;5011536;28;20040;-67
2022/06/03 00:18:26;;;;;;;11.65;4.75;;;;;;;;;;5017581;28;20084;-67
2022/06/03 00:21:08;;;;;;;8.23;5.07;;;;;;;;;;5031403;28;20553;-67
2022/06/03 00:23:49;;;;;;;8.80;5.00;;;;;;;;;;5031267;28;20115;-67
2022/06/03 00:26:33;;;;;;;11.15;4.85;;;;;;;;;;5031506;28;20099;-67
2022/06/03 00:29:18;;;;;;;7.28;4.78;;;;;;;;;;5031077;28;20029;-67
2022/06/03 00:32:04;;;;;;;8.55;4.65;;;;;;;;;;5031281;28;20479;-66
2022/06/03 00:34:48;;;;;;;10.07;4.47;;;;;;;;;;5031219;28;20029;-67
2022/06/03 00:37:43;;;;;;;6.82;4.70;;;;;;;;;;5031116;28;20131;-67
2022/06/03 00:40:39;;;;;;;7.70;4.63;;;;;;;;;;5014677;28;20095;-67
2022/06/03 00:43:16;;;;;;;11.82;5.28;;;;;;;;;;5030747;28;20116;-67
2022/06/03 00:46:12;;;;;;;9.82;4.90;;;;;;;;;;5030987;28;20043;-66
2022/06/03 00:49:25;;;;;;;9.02;4.88;;;;;;;;;;5030618;28;20037;-66
2022/06/03 00:52:25;;;;;;;7.82;4.65;;;;;;;;;;4977032;28;20045;-67
2022/06/03 00:54:58;;;;;;;11.52;4.93;;;;;;;;;;4991349;28;20093;-67
2022/06/03 00:57:32;;;;;;;8.13;5.00;;;;;;;;;;4991140;28;20088;-67
2022/06/03 01:00:27;;;;;;;8.35;4.82;;;;;;;;;;4990738;28;20134;-67
2022/06/03 01:03:39;;;;;;;7.43;4.78;;;;;;;;;;4953061;29;20136;-67
2022/06/03 01:06:22;;;;;;;7.93;5.00;;;;;;;;;;4895715;29;20044;-67
2022/06/03 01:08:50;;;;;;;12.35;5.03;;;;;;;;;;4895616;29;20040;-67
2022/06/03 01:11:46;;;;;;;8.80;5.20;;;;;;;;;;4895371;29;20052;-66
2022/06/03 01:14:27;;;;;;;11.65;4.57;;;;;;;;;;4895701;29;20041;-67
2022/06/03 01:17:13;;;;;;;6.57;4.68;;;;;;;;;;4895472;29;20528;-67
2022/06/03 01:20:03;;;;;;;5.97;4.22;;;;;;;;;;4914297;29;20048;-67
2022/06/03 01:23:00;;;;;;;9.23;4.95;;;;;;;;;;4914130;29;20092;-67
2022/06/03 01:25:59;;;;;;;6.95;3.90;;;;;;;;;;4914340;29;20031;-67
2022/06/03 01:28:24;;;;;;;6.50;4.35;;;;;;;;;;4930497;29;20425;-66
2022/06/03 01:31:04;;;;;;;6.63;4.45;;;;;;;;;;4933097;29;20035;-67
2022/06/03 01:34:08;;;;;;;9.88;4.45;;;;;;;;;;4933207;29;20127;-67
2022/06/03 01:37:12;;;;;;;8.82;4.57;;;;;;;;;;4933003;29;20063;-67
2022/06/03 01:40:00;;;;;;;10.02;4.65;;;;;;;;;;4927388;29;20135;-67
2022/06/03 01:42:45;;;;;;;6.95;4.10;;;;;;;;;;4955618;28;20415;-67
2022/06/03 01:45:55;;;;;;;7.53;3.97;;;;;;;;;;5010376;28;20065;-67
2022/06/03 01:48:35;;;;;;;12.93;5.22;;;;;;;;;;4971281;28;20561;-66
2022/06/03 01:51:01;;;;;;;;;;;;;;;;;;4971093;28;20046;-67
2022/06/03 01:53:29;;;;;;;9.05;4.70;;;;;;;;;;4971352;28;19914;-67
2022/06/03 01:56:06;;;;;;;12.13;4.88;;;;;;;;;;4971000;28;20042;-67
2022/06/03 01:58:48;;;;;;;9.32;4.88;;;;;;;;;;4971127;28;20047;-67
2022/06/03 02:01:28;;;;;;;9.35;4.40;;;;;;;;;;4971323;28;20035;-67
2022/06/03 02:03:59;;;;;;;9.70;4.50;;;;;;;;;;4971210;28;20051;-67
2022/06/03 02:06:43;;;;;;;9.85;5.10;;;;;;;;;;4971065;28;20035;-67
2022/06/03 02:09:11;;;;;;;10.10;4.40;;;;;;;;;;4971198;28;20062;-67
2022/06/03 02:12:00;;;;;;;10.93;4.50;;;;;;;;;;4971057;28;20621;-67
2022/06/03 02:14:53;;;;;;;7.55;4.85;;;;;;;;;;4974870;28;20039;-67
2022/06/03 02:17:46;;;;;;;7.53;4.63;;;;;;;;;;4974704;28;20089;-67
2022/06/03 02:20:36;;;;;;;14.40;4.80;;;;;;;;;;4990059;28;20085;-67
2022/06/03 02:23:36;;;;;;;16.45;4.78;;;;;;;;;;4999244;28;20182;-67
2022/06/03 02:26:39;;;;;;;5.97;3.72;;;;;;;;;;5035515;28;20379;-67
2022/06/03 02:32:18;;;;;;;6.63;4.53;;;;;;;;;;5035657;28;20136;-68
2022/06/03 02:34:44;;;;;;;8.70;4.85;;;;;;;;;;5035570;28;20013;-67
2022/06/03 02:37:47;;;;;;;8.38;4.85;;;;;;;;;;5035533;28;20022;-67
2022/06/03 02:40:21;;;;;;;8.60;5.13;;;;;;;;;;5035504;28;20036;-67
2022/06/03 02:42:53;;;;;;;7.03;4.72;;;;;;;;;;5034080;28;20181;-67
2022/06/03 02:45:41;;;;;;;7.93;4.47;;;;;;;;;;5035543;28;20371;-67
2022/06/03 02:48:22;;;;;;;9.82;4.97;;;;;;;;;;5035516;28;20021;-67
2022/06/03 02:51:18;;;;;;;7.47;4.93;;;;;;;;;;5035371;28;20029;-67
2022/06/03 02:54:18;;;;;;;8.00;4.43;;;;;;;;;;5035216;28;20449;-67
2022/06/03 02:57:08;;;;;;;8.60;4.35;;;;;;;;;;5034111;28;20112;-68
2022/06/03 03:00:08;;;;;;;11.27;4.93;;;;;;;;;;5035244;28;20048;-67
2022/06/03 03:02:35;;;;;;;;;;;;;;;;;;5035375;28;20482;-67
2022/06/03 03:05:15;;;;;;;6.22;3.97;;;;;;;;;;5035057;28;20067;-67
2022/06/03 03:07:47;;;;;;;9.77;4.57;;;;;;;;;;5034633;28;20096;-67
2022/06/03 03:10:39;;;;;;;11.05;4.70;;;;;;;;;;5034871;28;20036;-67
2022/06/03 03:13:47;;;;;;;10.02;4.47;;;;;;;;;;5034813;28;20026;-67
2022/06/03 03:16:53;;;;;;;7.20;4.50;;;;;;;;;;5035062;28;20029;-67
2022/06/03 03:19:43;;;;;;;8.63;4.72;;;;;;;;;;5052106;28;20020;-67
2022/06/03 03:22:24;;;;;;;6.80;4.57;;;;;;;;;;5052801;28;20048;-67
2022/06/03 03:25:02;;;;;;;11.07;4.55;;;;;;;;;;5053990;28;20033;-67
2022/06/03 03:27:52;;;;;;;7.70;4.82;;;;;;;;;;5054561;28;20474;-67
2022/06/03 03:30:41;;;;;;;13.75;4.57;;;;;;;;;;5054497;28;20025;-67
2022/06/03 03:33:17;;;;;;;6.80;4.70;;;;;;;;;;5050309;28;20471;-67
2022/06/03 03:36:16;;;;;;;9.00;4.57;;;;;;;;;;5054388;28;20379;-67
2022/06/03 03:39:23;;;;;;;8.60;4.93;;;;;;;;;;5054069;28;20478;-67
2022/06/03 03:42:30;;;;;;;11.85;5.35;;;;;;;;;;5054254;28;20036;-67
2022/06/03 03:45:44;;;;;;;6.30;4.85;;;;;;;;;;5054187;28;20110;-66
2022/06/03 03:48:21;;;;;;;8.50;5.00;;;;;;;;;;5054249;28;20025;-67
2022/06/03 03:51:06;;;;;;;6.03;4.70;;;;;;;;;;5054299;28;20044;-67
2022/06/03 03:54:14;;;;;;;7.25;4.47;;;;;;;;;;5053981;28;20370;-68
2022/06/03 03:57:37;;;;;;;7.88;4.90;;;;;;;;;;5053535;28;20131;-67
2022/06/03 04:00:17;;;;;;;6.35;4.57;;;;;;;;;;5031874;28;20033;-66
2022/06/03 04:03:04;;;;;;;6.07;4.88;;;;;;;;;;5033763;28;20551;-67
2022/06/03 04:06:01;;;;;;;10.38;5.28;;;;;;;;;;5031267;28;20107;-67
2022/06/03 04:08:36;;;;;;;7.72;4.95;;;;;;;;;;5031134;28;20033;-67
2022/06/03 04:11:42;;;;;;;6.82;4.75;;;;;;;;;;5028450;28;20036;-67
2022/06/03 04:14:39;;;;;;;10.23;5.32;;;;;;;;;;4972528;28;20043;-67
2022/06/03 04:17:27;;;;;;;11.50;5.38;;;;;;;;;;4972021;28;20445;-67
2022/06/03 04:20:34;;;;;;;8.45;5.47;;;;;;;;;;4971703;28;20026;-67
2022/06/03 04:23:18;;;;;;;6.78;5.50;;;;;;;;;;4963372;28;20566;-67
2022/06/03 04:26:28;;;;;;;10.75;4.72;;;;;;;;;;4972525;28;20070;-67
2022/06/03 04:29:34;;;;;;;8.88;5.35;;;;;;;;;;4877168;29;20073;-67
2022/06/03 04:32:24;;;;;;;8.38;5.45;;;;;;;;;;4859310;29;20046;-66
2022/06/03 04:35:20;;;;;;;6.85;5.43;;;;;;;;;;4858197;29;20449;-67
2022/06/03 04:38:03;;;;;;;12.52;5.32;;;;;;;;;;4858865;29;20128;-67
2022/06/03 04:40:35;;;;;;;6.90;5.40;;;;;;;;;;4858551;29;20037;-67
2022/06/03 04:43:42;;;;;;;7.78;5.00;;;;;;;;;;4858260;29;20048;-67
2022/06/03 04:46:28;;;;;;;11.25;5.13;;;;;;;;;;4858704;29;20054;-67
2022/06/03 04:49:11;;;;;;;9.07;4.88;;;;;;;;;;4876837;29;20039;-67
2022/06/03 04:52:14;;;;;;;8.63;5.00;;;;;;;;;;4952683;29;20503;-67
2022/06/03 04:55:01;;;;;;;9.15;5.40;;;;;;;;;;4952692;29;20089;-67
2022/06/03 04:57:51;;;;;;;6.70;5.00;;;;;;;;;;4952725;29;20521;-67
2022/06/03 05:00:27;;;;;;;7.68;5.00;;;;;;;;;;4952664;29;20481;-67
2022/06/03 05:03:20;;;;;;;5.80;4.57;;;;;;;;;;4952739;29;20416;-67
2022/06/03 05:06:07;;;;;;;8.80;4.45;;;;;;;;;;5032228;28;20029;-67
2022/06/03 05:08:54;;;;;;;7.22;4.22;;;;;;;;;;5046666;28;20953;-67
2022/06/03 05:11:38;;;;;;;9.32;4.32;;;;;;;;;;5053012;28;20032;-66
2022/06/03 05:14:15;;;;;;;5.65;4.13;;;;;;;;;;5051513;28;20024;-67
2022/06/03 05:17:12;;;;;;;6.25;4.10;;;;;;;;;;5064629;28;20027;-67
2022/06/03 05:20:06;;;;;;;7.00;4.20;;;;;;;;;;5055654;28;20029;-66
2022/06/03 05:22:55;;;;;;;5.85;4.55;;;;;;;;;;5052087;28;20093;-67
2022/06/03 05:25:30;;;;;;;5.60;4.35;;;;;;;;;;5052069;28;20040;-67
2022/06/03 05:28:10;;;;;;;7.80;4.57;;;;;;;;;;5055158;28;20024;-67
2022/06/03 05:30:38;;;;;;;;;;;;;;;;;;5072586;28;20029;-67
2022/06/03 05:33:10;;;;;;;7.38;4.38;;;;;;;;;;5065141;28;19923;-66
2022/06/03 05:36:10;;;;;;;5.88;4.07;;;;;;;;;;5048485;28;20024;-66
2022/06/03 05:39:05;;;;;;;7.40;4.15;;;;;;;;;;5048098;28;20027;-66
2022/06/03 05:45:10;;;;;;;7.95;4.15;;;;;;;;;;5046869;28;20044;-67
2022/06/03 05:47:45;;;;;;;6.68;3.97;;;;;;;;;;5050543;28;20438;-67
2022/06/03 05:50:52;;;;;;;11.20;4.30;;;;;;;;;;5054899;28;20020;-66
2022/06/03 05:53:39;;;;;;;7.03;4.45;;;;;;;;;;5052296;28;20090;-67
2022/06/03 05:56:31;;;;;;;9.95;4.05;;;;;;;;;;5053704;28;20025;-67
2022/06/03 05:59:16;;;;;;;6.80;3.92;;;;;;;;;;5052374;28;20529;-67
2022/06/03 06:02:15;;;;;;;5.57;3.88;;;;;;;;;;5052650;28;20017;-66
2022/06/03 06:04:52;;;;;;;11.43;3.97;;;;;;;;;;5052717;28;20541;-67
2022/06/03 06:07:43;;;;;;;6.57;3.67;;;;;;;;;;5052496;28;20029;-67
2022/06/03 06:10:21;;;;;;;12.40;3.55;;;;;;;;;;5053599;28;20075;-67
2022/06/03 06:12:49;;;;;;;7.90;4.00;;;;;;;;;;5054338;28;20032;-67
2022/06/03 06:15:45;;;;;;;6.28;3.78;;;;;;;;;;5051899;28;20466;-67
2022/06/03 06:18:30;;;;;;;7.43;3.63;;;;;;;;;;5050735;28;20068;-67
2022/06/03 06:21:31;;;;;;;11.13;4.00;;;;;;;;;;5051766;28;20541;-67
2022/06/03 06:24:20;;;;;;;6.45;3.55;;;;;;;;;;5012321;28;20092;-67
2022/06/03 06:27:04;;;;;;;6.50;3.30;;;;;;;;;;5012293;28;20038;-67
2022/06/03 06:30:05;;;;;;;14.02;4.28;;;;;;;;;;5011689;28;20065;-67
2022/06/03 06:32:41;;;;;;;6.30;2.90;;;;;;;;;;5011494;28;20029;-68
2022/06/03 06:35:41;;;;;;;9.15;2.72;;;;;;;;;;5012159;28;20065;-67
2022/06/03 06:38:14;;;;;;;4.97;2.13;;;;;;;;;;5012185;28;20091;-67
2022/06/03 06:41:04;;;;;;;5.53;2.10;;;;;;;;;;5007866;28;20143;-67
2022/06/03 06:43:36;;;;;;;10.15;2.50;;;;;;;;;;5013334;28;20026;-67
2022/06/03 06:46:19;;;;;;;7.65;2.10;;;;;;;;;;5013235;28;20611;-67
2022/06/03 06:49:13;;;;;;;4.03;1.85;;;;;;;;;;5012968;28;20065;-67
2022/06/03 06:51:57;;;;;;;5.53;1.77;;;;;;;;;;5013230;28;20034;-67
2022/06/03 06:54:41;;;;;;;6.32;2.28;;;;;;;;;;5013260;28;20590;-68
2022/06/03 06:57:14;;;;;;;6.57;2.08;;;;;;;;;;5013233;28;20483;-66
2022/06/03 06:59:47;;;;;;;3.72;2.00;;;;;;;;;;5034974;28;20068;-66
2022/06/03 07:02:20;;;;;;;9.30;1.75;;;;;;;;;;5055018;28;20025;-65
2022/06/03 07:04:58;;;;;;;5.93;2.05;;;;;;;;;;5054813;28;20032;-66
2022/06/03 07:07:33;;;;;;;9.02;1.70;;;;;;;;;;5054929;28;20036;-65
2022/06/03 07:10:24;;;;;;;4.50;1.90;;;;;;;;;;5054516;28;20393;-66
2022/06/03 07:13:06;;;;;;;10.63;2.47;;;;;;;;;;5054753;28;20025;-66
2022/06/03 07:15:44;;;;;;;2.97;1.60;;;;;;;;;;5054497;28;20021;-67
2022/06/03 07:21:31;;;;;;;3.08;1.40;;;;;;;;;;5054575;28;20461;-67
2022/06/03 07:24:07;;;;;;;4.03;1.73;;;;;;;;;;5031886;28;20088;-66
2022/06/03 07:26:43;;;;;;;8.05;1.77;;;;;;;;;;5031519;28;20030;-66
2022/06/03 07:29:27;;;;;;;7.93;1.70;;;;;;;;;;5010930;28;20523;-67
2022/06/03 07:32:17;;;;;;;4.53;1.80;;;;;;;;;;5031866;28;20025;-66
2022/06/03 07:34:52;;;;;;;7.40;1.95;;;;;;;;;;5031512;28;20056;-68
2022/06/03 07:37:29;;;;;;;6.90;1.58;;;;;;;;;;5032281;28;20032;-66
2022/06/03 07:40:17;;;;;;;2.65;1.70;;;;;;;;;;5032202;28;20071;-65
2022/06/03 07:42:45;;;;;;;5.03;1.40;;;;;;;;;;5031688;28;20037;-66
2022/06/03 07:45:23;;;;;;;4.97;2.17;;;;;;;;;;5031882;28;20112;-65
2022/06/03 07:47:49;;;;;;;3.92;1.40;;;;;;;;;;5031913;28;20164;-65
2022/06/03 07:50:18;;;;;;;5.72;1.83;;;;;;;;;;5031931;28;20109;-66
2022/06/03 07:52:51;;;;;;;11.07;2.15;;;;;;;;;;5031748;28;20026;-67
2022/06/03 07:55:22;;;;;;;3.63;1.50;;;;;;;;;;5031594;28;20041;-66
2022/06/03 07:57:58;;;;;;;5.13;1.67;;;;;;;;;;5031680;28;20148;-67
2022/06/03 08:00:25;;;;;;;3.75;1.45;;;;;;;;;;5027405;28;20044;-66
2022/06/03 08:03:01;;;;;;;4.15;1.33;;;;;;;;;;5053652;28;20025;-65
2022/06/03 08:05:28;;;;;;;6.28;1.58;;;;;;;;;;5053909;28;20028;-67
2022/06/03 08:11:00;;;;;;;4.65;1.40;;;;;;;;;;5053676;28;20040;-64
2022/06/03 08:13:51;;;;;;;2.85;1.20;;;;;;;;;;5053573;28;20025;-64
2022/06/03 08:16:35;;;;;;;7.82;1.50;;;;;;;;;;5048545;28;20036;-65
2022/06/03 08:19:23;;;;;;;3.70;1.30;;;;;;;;;;5053060;28;20504;-64
2022/06/03 08:21:52;;;;;;;5.53;1.50;;;;;;;;;;5059130;28;20044;-63
2022/06/03 08:24:25;;;;;;;3.78;1.50;;;;;;;;;;5073459;28;20125;-65
2022/06/03 08:27:04;;;;;;;2.50;1.42;;;;;;;;;;5057719;28;20074;-65
2022/06/03 08:29:49;;;;;;;5.03;1.92;;;;;;;;;;5053145;28;20049;-65
2022/06/03 08:32:20;;;;;;;3.58;1.48;;;;;;;;;;5052887;28;20037;-65
2022/06/03 08:34:51;;;;;;;3.22;1.40;;;;;;;;;;5053121;28;20016;-63
2022/06/03 08:37:49;;;;;;;5.82;1.60;;;;;;;;;;5051930;28;20029;-63
2022/06/03 08:40:38;;;;;;;5.97;1.60;;;;;;;;;;5051035;28;20521;-64
2022/06/03 08:43:18;;;;;;;3.20;1.40;;;;;;;;;;5051981;28;20024;-64
2022/06/03 08:45:55;;;;;;;3.60;1.42;;;;;;;;;;5051281;28;20025;-63
2022/06/03 08:48:28;;;;;;;2.50;1.30;;;;;;;;;;5052181;28;20113;-63
2022/06/03 08:50:58;;;;;;;2.10;1.17;;;;;;;;;;5051601;28;20838;-65
2022/06/03 08:53:36;;;;;;;5.30;1.50;;;;;;;;;;5053023;28;20442;-65
2022/06/03 08:56:10;;;;;;;2.88;1.40;;;;;;;;;;5052039;28;20025;-65
2022/06/03 08:58:56;;;;;;;2.15;1.17;;;;;;;;;;5052271;28;20029;-65
2022/06/03 09:01:45;;;;;;;4.05;1.42;;;;;;;;;;5052524;28;20025;-66
2022/06/03 09:04:20;;;;;;;5.22;1.30;;;;;;;;;;5052638;28;20471;-66
2022/06/03 09:07:06;;;;;;;4.05;1.50;;;;;;;;;;5052629;28;20044;-66
2022/06/03 09:09:54;;;;;;;5.03;1.33;;;;;;;;;;5052409;28;20051;-65
2022/06/03 09:13:00;;;;;;;4.25;1.35;;;;;;;;;;5050949;28;20032;-66
2022/06/03 09:15:29;;;;;;;3.42;1.40;;;;;;;;;;5052270;28;20032;-66
2022/06/03 09:18:03;;;;;;;3.67;1.33;;;;;;;;;;5046557;28;20497;-66
2022/06/03 09:20:53;;;;;;;4.18;1.30;;;;;;;;;;5032438;28;20049;-66
2022/06/03 09:23:20;;;;;;;3.30;1.30;;;;;;;;;;5032264;28;20041;-66
2022/06/03 09:25:54;;;;;;;3.67;1.50;;;;;;;;;;5031881;28;20503;-67
2022/06/03 09:28:32;;;;;;;3.13;1.30;;;;;;;;;;5032357;28;20033;-66
2022/06/03 09:31:01;;;;;;;4.80;1.17;;;;;;;;;;5032449;28;20032;-66
2022/06/03 09:33:28;;;;;;;3.67;1.10;;;;;;;;;;5040017;28;20086;-66
2022/06/03 09:35:57;;;;;;;2.75;1.35;;;;;;;;;;5050907;28;20025;-66
2022/06/03 09:38:26;;;;;;;2.00;1.02;;;;;;;;;;5050622;28;20025;-66
2022/06/03 09:40:57;;;;;;;2.30;1.10;;;;;;;;;;5050518;28;20525;-66
2022/06/03 09:43:32;;;;;;;5.72;1.40;;;;;;;;;;5050552;28;20037;-67
2022/06/03 09:46:01;;;;;;;3.47;1.40;;;;;;;;;;5050527;28;20024;-66
2022/06/03 09:48:34;;;;;;;8.25;1.40;;;;;;;;;;5047723;28;20028;-66
2022/06/03 09:51:13;;;;;;;2.83;1.33;;;;;;;;;;5050460;28;20020;-66
2022/06/03 09:53:42;;;;;;;2.17;1.20;;;;;;;;;;5049777;28;20013;-66
2022/06/03 09:56:20;;;;;;;3.00;1.25;;;;;;;;;;5048039;28;20018;-66
2022/06/03 09:58:47;;;;;;;1.90;1.10;;;;;;;;;;5050404;28;20036;-66
2022/06/03 10:01:12;;;;;;;3.97;1.30;;;;;;;;;;5050534;28;20025;-65
2022/06/03 10:03:38;;;;;;;4.45;1.33;;;;;;;;;;5050686;28;20025;-66
2022/06/03 10:06:04;;;;;;;3.28;1.20;;;;;;;;;;5051924;28;20056;-66
2022/06/03 10:12:48;;;;;;;6.63;1.45;;;;;;;;;;5049793;28;20118;-66
2022/06/03 10:14:03;;;;;;;2.47;1.15;;;;;;;;;;5051936;28;20032;-66
2022/06/03 10:16:30;;;;;;;3.22;1.10;;;;;;;;;;5051171;28;20492;-66
2022/06/03 10:18:56;;;;;;;2.83;1.30;;;;;;;;;;5050510;28;20032;-66
2022/06/03 10:21:21;;;;;;;5.90;1.40;;;;;;;;;;5051826;28;20070;-66
2022/06/03 10:23:56;;;;;;;3.40;1.38;;;;;;;;;;5051427;28;20048;-66
2022/06/03 10:26:26;;;;;;;3.60;1.23;;;;;;;;;;5051423;28;20131;-66
2022/06/03 10:28:52;;;;;;;;;;;;;;;;;;5050488;28;20132;-66
2022/06/03 10:31:21;;;;;;;2.17;1.20;;;;;;;;;;5050908;28;19948;-67
2022/06/03 10:33:58;;;;;;;2.75;1.38;;;;;;;;;;5052769;28;20367;-65
2022/06/03 10:36:39;;;;;;;2.47;1.23;;;;;;;;;;5055327;28;20051;-66
2022/06/03 10:39:06;;;;;;;2.60;1.30;;;;;;;;;;5055173;28;20107;-66
2022/06/03 10:41:40;;;;;;;2.88;1.30;;;;;;;;;;5055487;28;20111;-66
2022/06/03 10:44:23;;;;;;;5.00;1.30;;;;;;;;;;5055256;28;20029;-67
2022/06/03 10:46:54;;;;;;;6.43;1.30;;;;;;;;;;5055019;28;20398;-65
2022/06/03 10:49:21;;;;;;;5.50;1.50;;;;;;;;;;5054735;28;20124;-66
2022/06/03 11:03:06;;;;;;;6.57;1.90;;;;;;;;;;5052555;28;20083;-64
2022/06/03 11:05:36;;;;;;;5.63;1.13;;;;;;;;;;5043293;28;20057;-66
2022/06/03 11:08:10;;;;;;;11.88;2.92;;;;;;;;;;5040653;28;20027;-66
2022/06/03 11:10:40;;;;;;;4.13;1.40;;;;;;;;;;5040355;28;20041;-65
2022/06/03 11:13:07;;;;;;;2.65;1.30;;;;;;;;;;5040102;28;20399;-64
2022/06/03 11:15:38;;;;;;;5.20;1.30;;;;;;;;;;5046250;28;20115;-66
2022/06/03 11:18:18;;;;;;;3.28;1.20;;;;;;;;;;5045334;28;20052;-64
2022/06/03 11:20:50;;;;;;;4.65;1.30;;;;;;;;;;5041362;28;20018;-64
2022/06/03 11:23:16;;;;;;;3.42;1.17;;;;;;;;;;5037510;28;20041;-66
2022/06/03 11:25:57;;;;;;;7.88;1.70;;;;;;;;;;5040166;28;20368;-66
2022/06/03 11:28:25;;;;;;;4.47;1.52;;;;;;;;;;5041102;28;20108;-65
2022/06/03 11:31:00;;;;;;;5.35;1.30;;;;;;;;;;5039775;28;20053;-65
2022/06/03 11:33:37;;;;;;;1.85;1.20;;;;;;;;;;5039791;28;20561;-66
2022/06/03 11:36:09;;;;;;;4.78;1.90;;;;;;;;;;5046321;28;20037;-66
2022/06/03 11:38:49;;;;;;;2.75;1.30;;;;;;;;;;5050628;28;20474;-66
2022/06/03 11:41:40;;;;;;;4.28;1.30;;;;;;;;;;5050407;28;20039;-66
2022/06/03 11:44:15;;;;;;;2.58;1.17;;;;;;;;;;5051571;28;20053;-66
2022/06/03 11:46:41;;;;;;;2.20;1.23;;;;;;;;;;5051089;28;20559;-65
2022/06/03 11:49:08;;;;;;;5.57;1.63;;;;;;;;;;5052343;28;20032;-65
2022/06/03 11:51:35;;;;;;;5.57;1.52;;;;;;;;;;5051073;28;20419;-66
2022/06/03 11:54:01;;;;;;;7.10;2.38;;;;;;;;;;5052192;28;20040;-66
2022/06/03 11:56:30;;;;;;;3.50;1.33;;;;;;;;;;5052380;28;20056;-66
2022/06/03 11:58:59;;;;;;;2.33;1.10;;;;;;;;;;5052381;28;20111;-64
2022/06/03 12:01:51;;;;;;;3.33;0.93;;;;;;;;;;5052373;28;20535;-64
2022/06/03 12:04:16;;;;;;;2.13;0.90;;;;;;;;;;5010283;28;20495;-65
2022/06/03 12:07:03;;;;;;;3.65;0.90;;;;;;;;;;5009831;28;20046;-65
2022/06/03 12:09:46;;;;;;;2.20;1.20;;;;;;;;;;5010020;28;20042;-64
2022/06/03 12:15:35;;;;;;;2.28;1.02;;;;;;;;;;5011342;28;20068;-64
2022/06/03 12:18:07;;;;;;;2.03;1.13;;;;;;;;;;5011379;28;20041;-66
2022/06/03 12:20:32;;;;;;;2.67;1.10;;;;;;;;;;5010796;28;20494;-65
2022/06/03 12:23:18;;;;;;;2.63;1.10;;;;;;;;;;5011413;28;20082;-66
2022/06/03 12:25:49;;;;;;;2.20;1.00;;;;;;;;;;5011443;28;20049;-67
2022/06/03 12:28:36;;;;;;;3.72;1.15;;;;;;;;;;5011359;28;20038;-66
2022/06/03 12:31:22;;;;;;;3.50;1.17;;;;;;;;;;5011266;28;20029;-66
2022/06/03 12:34:08;;;;;;;2.45;1.10;;;;;;;;;;5011096;28;20085;-66
2022/06/03 12:36:52;;;;;;;2.58;1.00;;;;;;;;;;5011480;28;20034;-65
2022/06/03 12:39:28;;;;;;;1.77;1.00;;;;;;;;;;5011458;28;20029;-65
2022/06/03 12:41:54;;;;;;;5.40;1.80;;;;;;;;;;5029316;28;20044;-65
2022/06/03 12:44:34;;;;;;;1.30;0.90;;;;;;;;;;5033195;28;20033;-66
2022/06/03 12:47:18;;;;;;;7.78;1.27;;;;;;;;;;5032883;28;20014;-64
2022/06/03 12:49:44;;;;;;;1.55;1.00;;;;;;;;;;5032565;28;20143;-64
2022/06/03 12:52:35;;;;;;;3.83;1.00;;;;;;;;;;5033009;28;20021;-67
2022/06/03 12:55:22;;;;;;;2.10;0.90;;;;;;;;;;5032984;28;20040;-66
2022/06/03 12:57:54;;;;;;;4.63;1.60;;;;;;;;;;5044843;28;20051;-68
2022/06/03 13:00:35;;;;;;;2.65;0.95;;;;;;;;;;5050722;28;20447;-67
2022/06/03 13:03:26;;;;;;;1.95;1.00;;;;;;;;;;5052275;28;20074;-66
2022/06/03 13:05:59;;;;;;;2.67;1.15;;;;;;;;;;5051298;28;20046;-66
2022/06/03 13:08:27;;;;;;;5.15;1.20;;;;;;;;;;5042203;28;20036;-66
2022/06/03 13:11:00;;;;;;;2.05;1.10;;;;;;;;;;5041278;28;20032;-65
2022/06/03 13:13:37;;;;;;;1.35;0.90;;;;;;;;;;5032679;28;20063;-65
2022/06/03 13:16:35;;;;;;;5.40;1.40;;;;;;;;;;5032538;28;20029;-65
2022/06/03 13:19:17;;;;;;;3.80;1.10;;;;;;;;;;5046871;28;20073;-65
2022/06/03 13:21:58;;;;;;;2.13;1.00;;;;;;;;;;5052006;28;20029;-65
2022/06/03 13:24:27;;;;;;;2.10;1.20;;;;;;;;;;5052094;28;20082;-65
2022/06/03 13:27:19;;;;;;;2.10;1.08;;;;;;;;;;5052153;28;20027;-66
2022/06/03 13:29:56;;;;;;;1.42;1.00;;;;;;;;;;5032854;28;20071;-65
2022/06/03 13:32:40;;;;;;;1.60;1.00;;;;;;;;;;5031969;28;20053;-67
2022/06/03 13:35:22;;;;;;;1.90;1.20;;;;;;;;;;5032450;28;20471;-65
2022/06/03 13:37:57;;;;;;;2.38;1.20;;;;;;;;;;5032054;28;20021;-64
2022/06/03 13:40:26;;;;;;;2.63;1.10;;;;;;;;;;5032488;28;20088;-66
2022/06/03 13:43:00;;;;;;;1.70;1.20;;;;;;;;;;5032561;28;20025;-67
2022/06/03 13:45:26;;;;;;;2.20;1.10;;;;;;;;;;5032491;28;20491;-66
2022/06/03 13:47:54;;;;;;;2.85;1.23;;;;;;;;;;5032225;28;20026;-65
2022/06/03 13:50:32;;;;;;;4.90;1.25;;;;;;;;;;5036351;28;20048;-65
2022/06/03 13:53:05;;;;;;;2.78;1.35;;;;;;;;;;5039277;28;20037;-65
2022/06/03 13:55:50;;;;;;;2.33;1.00;;;;;;;;;;5051751;28;20025;-66
2022/06/03 13:58:27;;;;;;;1.77;1.00;;;;;;;;;;5050900;28;20021;-66
2022/06/03 14:01:01;;;;;;;2.25;0.90;;;;;;;;;;5051217;28;20090;-67
2022/06/03 14:03:38;;;;;;;1.77;1.05;;;;;;;;;;5047656;28;20635;-66
2022/06/03 14:06:07;;;;;;;1.70;1.02;;;;;;;;;;5051257;28;20446;-66
2022/06/03 14:08:46;;;;;;;2.92;1.05;;;;;;;;;;5053747;28;20040;-66
2022/06/03 14:11:20;;;;;;;2.55;1.02;;;;;;;;;;5053039;28;20109;-64
2022/06/03 14:14:00;;;;;;;2.05;1.15;;;;;;;;;;5053626;28;20439;-64
2022/06/03 14:16:58;;;;;;;2.42;1.17;;;;;;;;;;5054847;28;20107;-67
2022/06/03 14:19:39;;;;;;;2.47;1.13;;;;;;;;;;5034632;28;20042;-67
2022/06/03 14:22:23;;;;;;;2.20;1.25;;;;;;;;;;5033580;28;20056;-65
2022/06/03 14:25:10;;;;;;;3.85;1.30;;;;;;;;;;5033416;28;20164;-65
2022/06/03 14:28:03;;;;;;;4.80;1.20;;;;;;;;;;4963324;28;20039;-67
2022/06/03 14:30:41;;;;;;;4.63;1.30;;;;;;;;;;4955122;29;20436;-64
2022/06/03 14:33:08;;;;;;;2.80;1.13;;;;;;;;;;4955181;28;20067;-66
2022/06/03 14:35:39;;;;;;;1.83;1.10;;;;;;;;;;4954562;28;20090;-66
2022/06/03 14:38:37;;;;;;;3.75;1.30;;;;;;;;;;4955196;29;20050;-66
2022/06/03 14:41:07;;;;;;;2.10;1.23;;;;;;;;;;4955163;29;20532;-65
2022/06/03 14:43:34;;;;;;;;;;;;;;;;;;4954972;28;20051;-67
2022/06/03 14:46:04;;;;;;;5.03;2.00;;;;;;;;;;4938795;29;19923;-67
2022/06/03 14:48:37;;;;;;;2.97;1.17;;;;;;;;;;4955246;29;20028;-65
2022/06/03 14:51:13;;;;;;;2.85;1.27;;;;;;;;;;4955192;29;20039;-66
2022/06/03 14:53:49;;;;;;;2.63;1.00;;;;;;;;;;4955212;29;20024;-66
2022/06/03 14:56:31;;;;;;;3.40;1.20;;;;;;;;;;4965048;28;20046;-65
2022/06/03 14:59:04;;;;;;;2.97;1.08;;;;;;;;;;4973852;28;20059;-64
2022/06/03 15:01:46;;;;;;;4.63;1.40;;;;;;;;;;4974218;28;20031;-65
2022/06/03 15:04:21;;;;;;;2.88;1.20;;;;;;;;;;4995538;28;20399;-66
2022/06/03 15:07:15;;;;;;;2.25;1.27;;;;;;;;;;5035069;28;20064;-66
2022/06/03 15:09:45;;;;;;;2.33;1.38;;;;;;;;;;5034689;28;20117;-67
2022/06/03 15:12:22;;;;;;;4.57;1.10;;;;;;;;;;5033396;28;20372;-65
2022/06/03 15:14:49;;;;;;;1.38;1.05;;;;;;;;;;5034643;28;20091;-67
2022/06/03 15:17:17;;;;;;;2.35;1.10;;;;;;;;;;5034765;28;20031;-67
2022/06/03 15:19:48;;;;;;;3.17;1.00;;;;;;;;;;5053235;28;20394;-66
2022/06/03 15:22:22;;;;;;;1.77;0.90;;;;;;;;;;5053661;28;20052;-66
2022/06/03 15:25:19;;;;;;;2.75;1.10;;;;;;;;;;5053600;28;20037;-66
2022/06/03 15:27:53;;;;;;;1.88;1.00;;;;;;;;;;5049755;28;20029;-67
2022/06/03 15:30:38;;;;;;;1.65;0.98;;;;;;;;;;5054703;28;20107;-67
2022/06/03 15:33:13;;;;;;;2.13;1.13;;;;;;;;;;5054447;28;20031;-66
2022/06/03 15:35:39;;;;;;;2.35;1.48;;;;;;;;;;5054288;28;20025;-65
2022/06/03 15:38:08;;;;;;;2.75;1.20;;;;;;;;;;5054274;28;20439;-67
2022/06/03 15:40:36;;;;;;;3.57;1.20;;;;;;;;;;5054755;28;20056;-66
2022/06/03 15:43:05;;;;;;;2.45;1.17;;;;;;;;;;5054306;28;20274;-67
2022/06/03 15:45:34;;;;;;;2.00;1.15;;;;;;;;;;5054282;28;20505;-65
2022/06/03 15:48:03;;;;;;;2.95;1.10;;;;;;;;;;5054284;28;20036;-66
2022/06/03 15:50:29;;;;;;;3.97;1.10;;;;;;;;;;5054224;28;20037;-67
2022/06/03 15:52:57;;;;;;;1.98;1.23;;;;;;;;;;5054234;28;20025;-67
2022/06/03 15:55:47;;;;;;;2.90;1.30;;;;;;;;;;5054106;28;20354;-65
2022/06/03 15:58:36;;;;;;;4.32;1.42;;;;;;;;;;5054027;28;20471;-67
2022/06/03 16:01:07;;;;;;;1.60;1.10;;;;;;;;;;5054159;28;20021;-67
2022/06/03 16:03:39;;;;;;;2.45;1.17;;;;;;;;;;5054178;28;20727;-67
2022/06/03 16:06:18;;;;;;;3.95;1.20;;;;;;;;;;5053866;28;20021;-65
2022/06/03 16:09:16;;;;;;;3.13;1.10;;;;;;;;;;5053891;28;20033;-66
2022/06/03 16:12:11;;;;;;;2.47;1.23;;;;;;;;;;5031642;28;20471;-66
2022/06/03 16:14:54;;;;;;;2.63;1.10;;;;;;;;;;5031792;28;20441;-64
2022/06/03 16:18:00;;;;;;;1.75;1.20;;;;;;;;;;5031708;28;20042;-64
2022/06/03 16:20:53;;;;;;;4.13;1.20;;;;;;;;;;5031688;28;20033;-64
2022/06/03 16:23:41;;;;;;;3.25;1.40;;;;;;;;;;5014237;28;20532;-65
2022/06/03 16:26:17;;;;;;;1.65;1.10;;;;;;;;;;5011442;28;20451;-65
2022/06/03 16:28:57;;;;;;;2.60;1.50;;;;;;;;;;5030494;28;20037;-67
2022/06/03 16:31:48;;;;;;;2.13;1.40;;;;;;;;;;5030451;28;20029;-67
2022/06/03 16:34:32;;;;;;;2.08;1.17;;;;;;;;;;5032064;28;20033;-67
2022/06/03 16:37:18;;;;;;;3.17;1.48;;;;;;;;;;5021878;28;20030;-66